Terminal Aerodrome Forecast
Issued by NWS Huntsville, AL

Home | Current Version | Previous Version | Text Only | Print | Product List | Glossary On
Versions: 1 2 3 4 5 6 7 8 9 10 11 12 13
000
FTUS44 KHUN 191721
TAFMSL
TAF
KMSL 191721Z 1918/2018 22007KT P6SM SKC
     FM200000 VRB02KT P6SM SCT250
     FM200800 17004KT P6SM BKN050=

USA.gov is the U.S. government's official web portal to all federal, state and local government web resources and services.